Time;durP1;ratioP1;P1;durP2;ratioP2;P2;SDS_P1;SDS_P2;PMS_P1;PMS_P2;Temp;Humidity;BMP_temperature;BMP_pressure;BME280_temperature;BME280_humidity;BME280_pressure;Samples;Min_cycle;Max_cycle;Signal;HPM_P1;HPM_P2
2021/12/04 00:00:50;;;;;;;67.88;25.98;;;5.40;99.90;;;;;;4907061;29;20070;-80
2021/12/04 00:03:16;;;;;;;57.85;23.67;;;5.40;99.90;;;;;;4927029;29;20499;-81
2021/12/04 00:05:50;;;;;;;68.53;25.58;;;5.40;99.90;;;;;;4926916;29;20047;-80
2021/12/04 00:08:16;;;;;;;60.05;23.45;;;5.80;99.90;;;;;;4924251;29;20050;-80
2021/12/04 00:10:42;;;;;;;59.58;24.15;;;5.50;99.90;;;;;;4924380;29;20054;-81
2021/12/04 00:13:08;;;;;;;61.90;23.73;;;5.40;99.90;;;;;;4911603;29;20083;-80
2021/12/04 00:15:33;;;;;;;54.55;22.75;;;5.40;99.90;;;;;;4925239;29;20055;-80
2021/12/04 00:18:00;;;;;;;57.30;23.05;;;5.40;99.90;;;;;;4909719;29;20054;-79
2021/12/04 00:20:30;;;;;;;55.42;23.02;;;5.40;99.90;;;;;;4924515;29;20083;-81
2021/12/04 00:22:59;;;;;;;58.70;23.70;;;5.60;99.90;;;;;;4925658;29;20126;-80
2021/12/04 00:25:26;;;;;;;55.17;23.98;;;5.40;99.90;;;;;;4924113;29;20047;-80
2021/12/04 00:27:52;;;;;;;60.85;24.83;;;5.70;99.90;;;;;;4924984;29;20087;-80
2021/12/04 00:30:18;;;;;;;68.05;27.23;;;5.40;99.90;;;;;;4931144;29;20063;-80
2021/12/04 00:32:53;;;;;;;70.30;25.90;;;5.40;99.90;;;;;;4925426;29;20120;-80
2021/12/04 00:36:09;;;;;;;66.22;25.45;;;5.40;99.90;;;;;;4907800;29;20050;-80
2021/12/04 00:51:34;;;;;;;77.72;26.42;;;5.30;99.90;;;;;;4925749;29;20492;-81
2021/12/04 00:54:01;;;;;;;86.63;26.80;;;5.50;99.90;;;;;;4929293;29;20043;-80
2021/12/04 00:56:27;;;;;;;67.47;23.75;;;5.30;99.90;;;;;;4912296;29;20492;-81
2021/12/04 00:58:52;;;;;;;75.22;24.55;;;5.30;99.90;;;;;;4944800;28;20055;-81
2021/12/04 01:01:19;;;;;;;67.82;24.13;;;5.70;99.90;;;;;;4912528;29;20105;-80
2021/12/04 01:03:46;;;;;;;70.70;25.35;;;5.30;99.90;;;;;;4943696;28;20528;-80
2021/12/04 01:06:12;;;;;;;78.85;25.95;;;5.30;99.90;;;;;;4927289;29;20252;-80
2021/12/04 01:08:38;;;;;;;76.38;25.67;;;5.30;99.90;;;;;;4934596;29;20051;-80
2021/12/04 01:11:04;;;;;;;87.43;26.52;;;5.30;99.90;;;;;;4927555;29;20051;-80
2021/12/04 01:13:31;;;;;;;69.75;24.50;;;5.30;99.90;;;;;;4931491;29;20051;-80
2021/12/04 01:15:56;;;;;;;79.03;25.55;;;6.30;99.90;;;;;;4916648;29;20489;-80
2021/12/04 01:18:22;;;;;;;74.75;25.02;;;5.90;99.90;;;;;;4902487;29;20051;-79
2021/12/04 01:20:48;;;;;;;68.38;23.42;;;5.30;99.90;;;;;;4925729;29;20095;-80
2021/12/04 01:23:16;;;;;;;78.43;23.80;;;5.30;99.90;;;;;;4915481;29;20046;-82
2021/12/04 01:25:42;;;;;;;76.90;24.35;;;5.30;99.90;;;;;;4921149;29;20079;-80
2021/12/04 01:28:08;;;;;;;73.45;25.45;;;5.30;99.90;;;;;;4909823;29;20047;-80
2021/12/04 01:30:34;;;;;;;80.50;24.95;;;5.30;99.90;;;;;;4927692;29;20044;-80
2021/12/04 01:33:00;;;;;;;72.80;23.77;;;5.30;99.90;;;;;;4927917;29;20051;-81
2021/12/04 01:35:26;;;;;;;86.50;25.88;;;5.20;99.90;;;;;;4914277;29;20087;-80
2021/12/04 01:37:51;;;;;;;78.28;25.85;;;5.30;99.90;;;;;;4932273;29;20083;-80
2021/12/04 01:40:18;;;;;;;68.22;22.67;;;5.20;99.90;;;;;;4926984;29;20565;-80
2021/12/04 01:42:44;;;;;;;71.43;23.13;;;5.20;99.90;;;;;;4927588;29;20165;-81
2021/12/04 01:45:11;;;;;;;88.30;24.80;;;5.10;99.90;;;;;;4927018;29;20054;-81
2021/12/04 01:47:37;;;;;;;85.30;24.75;;;5.20;99.90;;;;;;4927871;29;20058;-80
2021/12/04 01:50:04;;;;;;;61.05;21.17;;;5.90;99.90;;;;;;4928414;29;20051;-80
2021/12/04 01:52:30;;;;;;;94.78;25.30;;;5.20;99.90;;;;;;4926913;29;20142;-80
2021/12/04 01:54:56;;;;;;;56.95;21.48;;;5.20;99.90;;;;;;4927630;29;20047;-82
2021/12/04 01:57:24;;;;;;;69.47;22.95;;;5.20;99.90;;;;;;4927455;29;20505;-81
2021/12/04 01:59:51;;;;;;;91.13;23.92;;;5.20;99.90;;;;;;4928288;29;20100;-80
2021/12/04 02:02:17;;;;;;;59.15;22.38;;;5.50;99.90;;;;;;4926887;29;20907;-80
2021/12/04 02:04:43;;;;;;;56.30;21.85;;;5.20;99.90;;;;;;4926551;29;20035;-80
2021/12/04 02:07:11;;;;;;;71.20;23.98;;;5.20;99.90;;;;;;4927730;29;20078;-81
2021/12/04 02:09:38;;;;;;;64.68;21.65;;;5.20;99.90;;;;;;4896975;29;20074;-80
2021/12/04 02:12:08;;;;;;;86.40;24.58;;;5.20;99.90;;;;;;4911404;29;20046;-80
2021/12/04 02:14:35;;;;;;;61.53;21.73;;;5.20;99.90;;;;;;4932635;29;20123;-80
2021/12/04 02:17:01;;;;;;;79.47;23.15;;;5.70;99.90;;;;;;4922862;29;20126;-81
2021/12/04 02:19:27;;;;;;;84.07;21.85;;;5.10;99.90;;;;;;4911809;29;20043;-80
2021/12/04 02:21:53;;;;;;;89.43;23.98;;;5.10;99.90;;;;;;4943804;28;20138;-80
2021/12/04 02:24:19;;;;;;;76.35;20.90;;;5.10;99.90;;;;;;4925330;29;20135;-80
2021/12/04 02:26:47;;;;;;;67.70;21.98;;;5.10;99.90;;;;;;4928736;29;20047;-80
2021/12/04 02:29:13;;;;;;;113.60;25.05;;;5.10;99.90;;;;;;4912980;29;20086;-80
2021/12/04 02:31:39;;;;;;;69.40;21.17;;;5.10;99.90;;;;;;4927450;29;20079;-80
2021/12/04 02:34:06;;;;;;;73.60;22.65;;;5.10;99.90;;;;;;4916136;29;20172;-80
2021/12/04 02:36:32;;;;;;;69.18;20.10;;;5.70;99.90;;;;;;4926769;29;20377;-80
2021/12/04 02:38:58;;;;;;;90.32;22.80;;;5.30;99.90;;;;;;4926920;29;20067;-81
2021/12/04 02:41:24;;;;;;;71.32;21.73;;;5.10;99.90;;;;;;4926892;29;20382;-80
2021/12/04 02:43:50;;;;;;;65.72;21.45;;;5.30;99.90;;;;;;4917111;29;20043;-80
2021/12/04 02:46:17;;;;;;;58.50;19.85;;;5.10;99.90;;;;;;4929925;29;20051;-80
2021/12/04 02:48:44;;;;;;;82.22;22.00;;;5.30;99.90;;;;;;4927561;29;20778;-80
2021/12/04 02:51:11;;;;;;;90.35;22.92;;;5.10;99.90;;;;;;4941551;29;20039;-80
2021/12/04 02:53:37;;;;;;;84.22;22.48;;;5.10;99.90;;;;;;4927231;29;20718;-81
2021/12/04 02:56:05;;;;;;;62.50;19.88;;;6.10;99.90;;;;;;4927468;29;20067;-80
2021/12/04 02:58:33;;;;;;;74.22;22.10;;;5.10;99.90;;;;;;4912320;29;20054;-80
2021/12/04 03:01:00;;;;;;;84.45;21.90;;;5.10;99.90;;;;;;4926594;29;20035;-83
2021/12/04 03:03:27;;;;;;;60.95;20.65;;;5.10;99.90;;;;;;4927982;29;20571;-81
2021/12/04 03:05:53;;;;;;;58.00;20.08;;;5.80;99.90;;;;;;4942871;29;20051;-80
2021/12/04 03:08:19;;;;;;;58.72;20.48;;;5.10;99.90;;;;;;4931275;29;20201;-80
2021/12/04 03:10:48;;;;;;;67.05;21.83;;;5.10;99.90;;;;;;4924150;29;20548;-80
2021/12/04 03:13:17;;;;;;;74.40;21.45;;;5.20;99.90;;;;;;4941352;28;20051;-80
2021/12/04 03:15:45;;;;;;;93.40;23.40;;;5.10;99.90;;;;;;4925989;29;20444;-80
2021/12/04 03:18:10;;;;;;;70.40;20.88;;;5.10;99.90;;;;;;4940054;28;20054;-80
2021/12/04 03:20:44;;;;;;;93.28;22.80;;;5.10;99.90;;;;;;4924086;29;20050;-81
2021/12/04 03:23:24;;;;;;;76.63;21.27;;;5.10;99.90;;;;;;4901480;29;20423;-80
2021/12/04 03:25:52;;;;;;;62.13;20.00;;;5.10;99.90;;;;;;4925763;29;20048;-80
2021/12/04 03:28:18;;;;;;;65.90;21.55;;;5.10;99.90;;;;;;4927171;29;20063;-80
2021/12/04 03:41:55;;;;;;;85.00;22.15;;;5.10;99.90;;;;;;4918244;29;20055;-81
2021/12/04 03:44:21;;;;;;;65.85;21.70;;;5.10;99.90;;;;;;4914108;29;20054;-80
2021/12/04 03:46:48;;;;;;;77.68;23.08;;;5.40;99.90;;;;;;4907618;29;20134;-80
2021/12/04 03:49:14;;;;;;;117.35;24.27;;;5.30;99.90;;;;;;4910479;29;20075;-80
2021/12/04 03:51:40;;;;;;;78.65;22.08;;;5.10;99.90;;;;;;4927047;29;20105;-80
2021/12/04 03:54:06;;;;;;;94.93;23.10;;;5.80;99.90;;;;;;4925048;29;20477;-80
2021/12/04 03:56:32;;;;;;;80.28;23.15;;;5.30;99.90;;;;;;4930329;29;20055;-80
2021/12/04 03:58:58;;;;;;;97.35;24.00;;;5.40;99.90;;;;;;4925714;29;20082;-80
2021/12/04 04:01:24;;;;;;;99.40;24.10;;;6.10;99.90;;;;;;4941163;29;20043;-80
2021/12/04 04:03:50;;;;;;;83.95;22.15;;;5.20;99.90;;;;;;4931852;29;20461;-81
2021/12/04 04:06:16;;;;;;;77.78;22.23;;;5.10;99.90;;;;;;4914387;29;20047;-81
2021/12/04 04:08:42;;;;;;;100.40;22.77;;;5.20;99.90;;;;;;4931647;29;20052;-79
2021/12/04 04:11:08;;;;;;;84.13;22.23;;;5.40;99.90;;;;;;4914723;29;20385;-80
2021/12/04 04:13:34;;;;;;;82.95;22.65;;;5.20;99.90;;;;;;4923342;29;20079;-80
2021/12/04 04:16:00;;;;;;;94.03;23.33;;;5.20;99.90;;;;;;4925485;29;20055;-80
2021/12/04 04:18:30;;;;;;;96.47;24.70;;;5.20;99.90;;;;;;4909203;29;20138;-81
2021/12/04 04:20:56;;;;;;;99.03;23.63;;;5.20;99.90;;;;;;4921978;29;20408;-80
2021/12/04 04:23:22;;;;;;;120.55;25.73;;;5.90;99.90;;;;;;4941460;29;20101;-80
2021/12/04 04:25:47;;;;;;;78.18;23.77;;;5.20;99.90;;;;;;4906343;29;20509;-80
2021/12/04 04:28:13;;;;;;;103.43;25.20;;;5.20;99.90;;;;;;4889829;29;20102;-81
2021/12/04 04:30:39;;;;;;;139.98;26.77;;;5.20;99.90;;;;;;4927573;29;20207;-80
2021/12/04 04:33:06;;;;;;;81.10;22.45;;;5.20;99.90;;;;;;4928432;29;20110;-81
2021/12/04 04:35:33;;;;;;;78.75;23.65;;;5.20;99.90;;;;;;4929199;29;20086;-80
2021/12/04 04:38:16;;;;;;;93.95;24.13;;;5.20;99.90;;;;;;4930526;29;20449;-80
2021/12/04 05:13:29;;;;;;;86.35;24.33;;;5.20;99.90;;;;;;4944777;28;20506;-80
2021/12/04 05:16:00;;;;;;;104.65;24.63;;;5.20;99.90;;;;;;4919033;29;20544;-81
2021/12/04 05:21:04;;;;;;;135.93;25.58;;;5.70;99.90;;;;;;4929717;29;20493;-80
2021/12/04 05:23:40;;;;;;;94.68;24.00;;;5.20;99.90;;;;;;4927672;29;20043;-80
2021/12/04 05:26:08;;;;;;;98.97;23.73;;;5.20;99.90;;;;;;4934107;29;20039;-80
2021/12/04 05:28:34;;;;;;;120.78;25.08;;;5.50;99.90;;;;;;4928948;29;20077;-80
2021/12/04 05:31:00;;;;;;;98.65;24.15;;;5.20;99.90;;;;;;4928108;29;20052;-80
2021/12/04 05:33:26;;;;;;;84.63;24.63;;;5.20;99.90;;;;;;4927568;29;20393;-80
2021/12/04 05:35:52;;;;;;;110.15;23.83;;;5.20;99.90;;;;;;4927994;28;20051;-79
2021/12/04 05:38:19;;;;;;;86.95;22.88;;;5.30;99.90;;;;;;4928001;29;20047;-80
2021/12/04 05:40:46;;;;;;;101.90;25.55;;;5.20;99.90;;;;;;4926799;29;20054;-80
2021/12/04 05:43:12;;;;;;;163.07;28.50;;;5.20;99.90;;;;;;4925999;29;20109;-80
2021/12/04 05:45:42;;;;;;;99.18;23.40;;;5.20;99.90;;;;;;4910677;29;20047;-80
2021/12/04 05:48:12;;;;;;;121.70;25.95;;;5.20;99.90;;;;;;4917128;29;20058;-82
2021/12/04 05:50:56;;;;;;;115.30;26.67;;;5.20;99.90;;;;;;4910777;29;20051;-80
2021/12/04 05:53:25;;;;;;;74.15;23.88;;;6.40;99.90;;;;;;4915251;29;20076;-80
2021/12/04 05:55:55;;;;;;;84.95;24.10;;;5.20;99.90;;;;;;4928793;29;20441;-80
2021/12/04 05:58:26;;;;;;;85.25;25.27;;;5.20;99.90;;;;;;4930085;29;20050;-80
2021/12/04 06:00:53;;;;;;;89.55;24.83;;;5.20;99.90;;;;;;4943342;28;20493;-80
2021/12/04 06:03:20;;;;;;;105.70;25.73;;;5.20;99.90;;;;;;4942452;29;20454;-81
2021/12/04 06:05:46;;;;;;;102.32;24.83;;;6.30;99.90;;;;;;4912631;29;20051;-80
2021/12/04 06:08:12;;;;;;;180.07;30.70;;;5.20;99.90;;;;;;4910624;29;20051;-82
2021/12/04 06:10:39;;;;;;;100.22;24.58;;;6.10;99.90;;;;;;4927810;29;20050;-82
2021/12/04 06:13:05;;;;;;;83.55;25.33;;;6.20;99.90;;;;;;4913660;29;20058;-80
2021/12/04 06:15:31;;;;;;;101.07;26.30;;;5.10;99.90;;;;;;4926082;29;20043;-80
2021/12/04 06:17:56;;;;;;;126.53;29.17;;;5.20;99.90;;;;;;4910528;29;20155;-80
2021/12/04 06:23:08;;;;;;;86.13;25.77;;;5.20;99.90;;;;;;4927365;29;20157;-80
2021/12/04 06:25:35;;;;;;;187.63;30.23;;;5.20;99.90;;;;;;4924321;29;20165;-80
2021/12/04 06:28:01;;;;;;;105.80;26.42;;;5.20;99.90;;;;;;4931243;29;20052;-80
2021/12/04 06:30:33;;;;;;;124.78;27.90;;;5.40;99.90;;;;;;4927396;29;20599;-80
2021/12/04 06:32:59;;;;;;;116.82;28.13;;;5.20;99.90;;;;;;4929729;29;20452;-81
2021/12/04 06:35:26;;;;;;;137.98;28.45;;;5.20;99.90;;;;;;4928448;29;20043;-81
2021/12/04 06:37:52;;;;;;;156.25;30.58;;;5.20;99.90;;;;;;4932881;29;20051;-80
2021/12/04 06:40:23;;;;;;;143.43;27.98;;;5.20;99.90;;;;;;4930807;29;20230;-80
2021/12/04 06:42:49;;;;;;;135.05;27.38;;;5.20;99.90;;;;;;4926920;29;20047;-81
2021/12/04 06:45:14;;;;;;;121.32;27.25;;;5.50;99.90;;;;;;4927058;29;20497;-81
2021/12/04 06:47:47;;;;;;;105.32;26.05;;;5.20;99.90;;;;;;4926678;29;20119;-81
2021/12/04 06:53:18;;;;;;;125.47;27.42;;;5.20;99.90;;;;;;4901019;28;20054;-80
2021/12/04 06:55:48;;;;;;;94.63;26.23;;;5.20;99.90;;;;;;4906498;29;20059;-80
2021/12/04 06:58:14;;;;;;;196.80;33.90;;;6.50;99.90;;;;;;4926708;29;20056;-81
2021/12/04 07:00:40;;;;;;;184.98;30.00;;;5.20;99.90;;;;;;4911738;29;20111;-81
2021/12/04 07:03:06;;;;;;;134.65;28.13;;;5.20;99.90;;;;;;4921021;29;20107;-80
2021/12/04 07:05:32;;;;;;;142.95;28.67;;;5.70;99.90;;;;;;4904259;29;20131;-80
2021/12/04 07:07:58;;;;;;;139.73;29.13;;;5.20;99.90;;;;;;4922502;29;20078;-80
2021/12/04 07:10:24;;;;;;;134.02;27.80;;;5.20;99.90;;;;;;4910331;29;20040;-81
2021/12/04 07:12:49;;;;;;;106.97;26.58;;;5.20;99.90;;;;;;4922297;29;20453;-79
2021/12/04 07:15:15;;;;;;;122.38;27.42;;;5.20;99.90;;;;;;4903280;29;20162;-80
2021/12/04 07:17:41;;;;;;;160.15;30.15;;;5.40;99.90;;;;;;4904618;29;20123;-80
2021/12/04 07:20:09;;;;;;;152.90;30.92;;;6.00;99.90;;;;;;4936325;29;20043;-80
2021/12/04 07:22:35;;;;;;;148.00;29.13;;;5.20;99.90;;;;;;4922266;29;20280;-79
2021/12/04 07:25:03;;;;;;;109.70;27.25;;;5.20;99.90;;;;;;4921868;29;20121;-80
2021/12/04 07:27:32;;;;;;;122.47;27.95;;;5.20;99.90;;;;;;4922493;29;20095;-80
2021/12/04 07:29:59;;;;;;;101.50;26.42;;;5.50;99.90;;;;;;4923420;29;20064;-81
2021/12/04 07:32:25;;;;;;;151.57;29.40;;;5.20;99.90;;;;;;4921471;29;20390;-81
2021/12/04 07:34:51;;;;;;;159.25;29.58;;;5.20;99.90;;;;;;4887829;29;20062;-80
2021/12/04 07:37:17;;;;;;;169.30;30.90;;;5.20;99.90;;;;;;4922519;29;20958;-82
2021/12/04 07:39:43;;;;;;;125.55;28.17;;;5.20;99.90;;;;;;4901585;29;20047;-80
2021/12/04 07:42:09;;;;;;;95.60;24.80;;;5.20;99.90;;;;;;4922556;29;20401;-78
2021/12/04 07:44:35;;;;;;;133.65;29.27;;;5.20;99.90;;;;;;4902640;29;20079;-79
2021/12/04 07:47:01;;;;;;;84.82;24.30;;;5.50;99.90;;;;;;4904370;29;20054;-79
2021/12/04 07:49:26;;;;;;;121.88;26.42;;;5.20;99.90;;;;;;4921408;29;20082;-78
2021/12/04 07:51:53;;;;;;;92.68;25.65;;;5.20;99.90;;;;;;4906340;29;20127;-78
2021/12/04 07:54:18;;;;;;;82.28;22.70;;;5.20;99.90;;;;;;4895530;29;20102;-80
2021/12/04 07:56:44;;;;;;;81.18;23.25;;;5.20;99.90;;;;;;4921432;29;20510;-80
2021/12/04 07:59:10;;;;;;;70.47;20.48;;;5.20;99.90;;;;;;4922157;29;20504;-80
2021/12/04 08:01:36;;;;;;;96.78;23.60;;;5.50;99.90;;;;;;4904849;29;20114;-77
2021/12/04 08:04:03;;;;;;;68.55;20.33;;;5.60;99.90;;;;;;4917858;29;20044;-79
2021/12/04 08:06:32;;;;;;;62.75;19.75;;;5.20;99.90;;;;;;4901103;29;20048;-78
2021/12/04 08:08:59;;;;;;;59.80;19.35;;;6.00;99.90;;;;;;4907095;29;20080;-78
2021/12/04 08:11:28;;;;;;;70.50;21.42;;;5.20;99.90;;;;;;4920980;29;20043;-78
2021/12/04 08:13:54;;;;;;;66.10;20.15;;;5.70;99.90;;;;;;4921256;29;20781;-80
2021/12/04 08:16:24;;;;;;;88.30;22.27;;;5.20;99.90;;;;;;4921622;29;20047;-80
2021/12/04 08:18:52;;;;;;;76.13;21.55;;;5.40;99.90;;;;;;4905324;29;20090;-78
2021/12/04 08:21:18;;;;;;;78.88;22.02;;;5.90;99.90;;;;;;4910049;29;20050;-80
2021/12/04 08:23:44;;;;;;;88.53;21.80;;;5.20;99.90;;;;;;4922601;29;20052;-77
2021/12/04 08:26:10;;;;;;;67.15;18.75;;;5.50;99.90;;;;;;4908228;29;20507;-81
2021/12/04 08:28:36;;;;;;;77.93;19.75;;;4.50;99.90;;;;;;4925461;29;20052;-79
2021/12/04 08:31:02;;;;;;;77.97;20.38;;;5.20;99.90;;;;;;4890880;29;20066;-81
2021/12/04 08:33:28;;;;;;;82.47;20.73;;;5.20;99.90;;;;;;4899783;29;20386;-80
2021/12/04 08:35:54;;;;;;;64.32;18.60;;;5.20;99.90;;;;;;4916146;29;20051;-78
2021/12/04 08:38:20;;;;;;;82.50;21.60;;;5.30;99.90;;;;;;4920148;29;20047;-77
2021/12/04 08:40:46;;;;;;;77.60;20.52;;;5.30;99.90;;;;;;4884716;29;20150;-78
2021/12/04 08:43:13;;;;;;;88.35;20.92;;;5.20;99.90;;;;;;4905942;29;20039;-78
2021/12/04 08:45:40;;;;;;;78.30;19.67;;;5.20;99.90;;;;;;4936344;29;20043;-79
2021/12/04 08:48:06;;;;;;;74.90;20.65;;;5.20;99.90;;;;;;4920222;29;20142;-77
2021/12/04 08:50:33;;;;;;;113.28;21.98;;;5.20;99.90;;;;;;4903404;29;20044;-77
2021/12/04 08:53:00;;;;;;;111.63;22.98;;;5.20;99.90;;;;;;4918469;29;20461;-78
2021/12/04 08:55:28;;;;;;;56.40;18.02;;;5.20;99.90;;;;;;4907547;29;20055;-78
2021/12/04 08:57:54;;;;;;;59.65;18.63;;;5.20;99.90;;;;;;4919456;29;20505;-77
2021/12/04 09:00:35;;;;;;;91.50;21.83;;;5.20;99.90;;;;;;4917218;29;20039;-77
2021/12/04 09:03:02;;;;;;;75.38;19.98;;;5.20;99.90;;;;;;4924491;29;20087;-76
2021/12/04 09:05:28;;;;;;;81.20;20.17;;;5.70;99.90;;;;;;4918913;29;20118;-77
2021/12/04 09:07:54;;;;;;;80.28;18.67;;;5.10;99.90;;;;;;4921121;29;20082;-77
2021/12/04 09:10:21;;;;;;;110.53;22.20;;;5.80;99.90;;;;;;4908880;29;20390;-77
2021/12/04 09:12:48;;;;;;;72.78;18.83;;;5.10;99.90;;;;;;4888553;29;20048;-77
2021/12/04 09:15:20;;;;;;;72.15;20.20;;;5.10;99.90;;;;;;4919737;29;20051;-78
2021/12/04 09:17:46;;;;;;;111.57;22.55;;;5.10;99.90;;;;;;4940941;28;20086;-78
2021/12/04 09:20:16;;;;;;;49.97;18.05;;;5.10;99.90;;;;;;4914028;29;20067;-78
2021/12/04 09:22:44;;;;;;;81.28;22.17;;;5.10;99.90;;;;;;4923406;29;20051;-78
2021/12/04 09:25:15;;;;;;;78.63;20.65;;;5.10;99.90;;;;;;4940105;29;20059;-78
2021/12/04 09:36:28;;;;;;;84.55;23.42;;;5.00;99.90;;;;;;4910264;29;20473;-81
2021/12/04 10:06:06;;;;;;;57.63;19.17;;;5.00;99.90;;;;;;4923851;29;20063;-78
2021/12/04 10:17:30;;;;;;;80.45;22.63;;;5.10;99.90;;;;;;4910456;29;20130;-82
2021/12/04 10:33:18;;;;;;;63.97;18.92;;;5.00;99.90;;;;;;4922685;29;20056;-80
2021/12/04 10:35:48;;;;;;;54.80;19.15;;;5.00;99.90;;;;;;4925652;29;20052;-79
2021/12/04 10:38:40;;;;;;;64.20;20.35;;;5.10;99.90;;;;;;4925303;29;20047;-80
2021/12/04 10:41:06;;;;;;;78.68;20.77;;;5.10;99.90;;;;;;4908384;29;20044;-79
2021/12/04 10:43:32;;;;;;;64.82;20.73;;;6.10;99.90;;;;;;4922925;29;20040;-81
2021/12/04 10:46:02;;;;;;;75.78;21.60;;;5.10;99.90;;;;;;4896433;29;20052;-79
2021/12/04 10:48:31;;;;;;;67.68;19.75;;;4.10;99.90;;;;;;4927129;29;20047;-81
2021/12/04 10:53:49;;;;;;;67.50;20.50;;;5.10;99.90;;;;;;4940042;29;20052;-78
2021/12/04 10:59:27;;;;;;;52.47;18.30;;;5.00;99.90;;;;;;4927953;29;20052;-84
2021/12/04 11:02:05;;;;;;;47.38;17.88;;;5.70;99.90;;;;;;4920889;29;20059;-80
2021/12/04 11:04:49;;;;;;;52.65;17.25;;;5.10;99.90;;;;;;4908562;29;20055;-86
2021/12/04 11:35:52;;;;;;;56.28;19.10;;;5.10;99.90;;;;;;4923451;29;20051;-86
2021/12/04 11:43:17;;;;;;;55.55;18.33;;;5.10;99.90;;;;;;4924586;29;20047;-79
2021/12/04 11:46:01;;;;;;;57.30;19.55;;;5.10;99.90;;;;;;4920568;29;20052;-80
2021/12/04 11:48:38;;;;;;;47.78;16.98;;;5.10;99.90;;;;;;4910575;29;20051;-78
2021/12/04 11:51:11;;;;;;;57.03;18.67;;;5.10;99.90;;;;;;4908691;29;20138;-80
2021/12/04 11:53:37;;;;;;;56.05;16.98;;;5.10;99.90;;;;;;4919971;29;20083;-82
2021/12/04 11:56:03;;;;;;;54.42;17.15;;;4.20;99.90;;;;;;4926804;29;20050;-81
2021/12/04 11:58:41;;;;;;;62.38;18.40;;;5.10;99.90;;;;;;4911644;29;20531;-80
2021/12/04 12:01:21;;;;;;;56.25;17.90;;;5.10;99.90;;;;;;4939086;29;20044;-80
2021/12/04 12:03:56;;;;;;;43.90;16.67;;;5.70;99.90;;;;;;4918454;29;20055;-80
2021/12/04 12:06:34;;;;;;;67.63;18.67;;;5.10;99.90;;;;;;4925295;29;20050;-80
2021/12/04 12:09:07;;;;;;;48.58;17.25;;;5.10;99.90;;;;;;4945071;28;20182;-80
2021/12/04 12:11:32;;;;;;;57.72;17.38;;;5.20;99.90;;;;;;4926762;29;20106;-82
2021/12/04 12:14:10;;;;;;;67.68;18.45;;;5.10;99.90;;;;;;4928820;28;20090;-80
2021/12/04 12:16:47;;;;;;;53.17;17.80;;;5.10;99.90;;;;;;4942272;28;20070;-79
2021/12/04 12:19:27;;;;;;;57.03;18.20;;;5.80;99.90;;;;;;4923126;29;20154;-81
2021/12/04 12:22:03;;;;;;;70.03;19.40;;;5.10;99.90;;;;;;4912564;29;20058;-81
2021/12/04 12:38:34;;;;;;;66.35;18.75;;;5.20;99.90;;;;;;4925173;29;20090;-78
2021/12/04 12:41:20;;;;;;;71.50;19.25;;;5.20;99.90;;;;;;4921844;29;20044;-78
2021/12/04 12:43:49;;;;;;;;;;;5.30;99.90;;;;;;4925414;29;20043;-78
2021/12/04 12:46:16;;;;;;;62.60;18.35;;;5.20;99.90;;;;;;4923641;29;20131;-79
2021/12/04 12:48:53;;;;;;;51.97;18.23;;;5.20;99.90;;;;;;4939723;29;20085;-78
2021/12/04 12:51:34;;;;;;;56.92;19.73;;;5.20;99.90;;;;;;4923868;29;20059;-79
2021/12/04 12:54:04;;;;;;;53.05;19.88;;;5.20;99.90;;;;;;4927807;29;20051;-78
2021/12/04 12:56:33;;;;;;;49.33;18.13;;;5.20;99.90;;;;;;4920369;29;20070;-78
2021/12/04 12:59:20;;;;;;;61.10;20.80;;;5.20;99.90;;;;;;4922959;29;20140;-78
2021/12/04 13:13:26;;;;;;;53.42;17.48;;;5.30;99.90;;;;;;4907158;29;20056;-78
2021/12/04 13:15:54;;;;;;;51.15;19.13;;;5.30;99.90;;;;;;4905376;29;20915;-78
2021/12/04 13:18:25;;;;;;;53.45;19.38;;;5.70;99.90;;;;;;4907014;29;20053;-78
2021/12/04 13:20:53;;;;;;;42.63;17.33;;;5.30;99.90;;;;;;4891003;29;20059;-78
2021/12/04 13:23:24;;;;;;;44.00;18.23;;;5.30;99.90;;;;;;4910541;29;20040;-78
2021/12/04 13:25:57;;;;;;;45.33;16.63;;;5.30;99.90;;;;;;4894323;29;20056;-78
2021/12/04 13:28:27;;;;;;;39.90;16.58;;;5.30;99.90;;;;;;4911701;29;20044;-78
2021/12/04 13:30:53;;;;;;;46.45;17.63;;;5.30;99.90;;;;;;4894471;29;20527;-79
2021/12/04 13:33:19;;;;;;;44.03;16.90;;;5.40;99.90;;;;;;4897176;29;20052;-78
2021/12/04 13:35:46;;;;;;;43.70;16.83;;;5.50;99.90;;;;;;4885751;29;20572;-78
2021/12/04 13:38:16;;;;;;;39.80;17.20;;;5.40;99.90;;;;;;4886445;29;20146;-78
2021/12/04 13:40:44;;;;;;;38.53;16.60;;;5.50;99.90;;;;;;4908991;29;20041;-79
2021/12/04 13:43:12;;;;;;;39.55;17.38;;;5.90;99.90;;;;;;4906329;29;20057;-79
2021/12/04 13:45:39;;;;;;;39.33;15.52;;;5.40;99.90;;;;;;4912624;29;20100;-78
2021/12/04 13:48:06;;;;;;;42.83;17.05;;;5.40;99.90;;;;;;4893962;29;20127;-80
2021/12/04 13:53:08;;;;;;;38.47;16.75;;;5.40;99.90;;;;;;4905056;29;20088;-79
2021/12/04 13:55:40;;;;;;;35.15;14.98;;;5.30;99.90;;;;;;4889113;29;20047;-79
2021/12/04 13:58:06;;;;;;;35.20;15.30;;;5.30;99.90;;;;;;4922277;29;20056;-79
2021/12/04 14:00:32;;;;;;;35.30;14.50;;;5.30;99.90;;;;;;4923833;29;20075;-78
2021/12/04 14:02:58;;;;;;;38.10;15.75;;;6.00;99.90;;;;;;4938434;28;20063;-78
2021/12/04 14:05:26;;;;;;;35.45;15.80;;;5.30;99.90;;;;;;4924216;29;20888;-79
2021/12/04 14:07:55;;;;;;;33.50;14.75;;;5.30;99.90;;;;;;4924339;29;20090;-78
2021/12/04 14:10:44;;;;;;;42.08;16.17;;;5.50;99.90;;;;;;4908112;29;20659;-83
2021/12/04 14:13:16;;;;;;;40.22;16.00;;;5.30;99.90;;;;;;4929309;29;20055;-82
2021/12/04 14:15:44;;;;;;;41.75;16.33;;;5.30;99.90;;;;;;4923422;29;20130;-81
2021/12/04 14:18:16;;;;;;;42.33;17.20;;;6.00;99.90;;;;;;4920773;29;20085;-80
2021/12/04 14:20:45;;;;;;;40.30;15.73;;;5.30;99.90;;;;;;4928755;29;20035;-81
2021/12/04 14:23:11;;;;;;;44.15;17.10;;;5.30;99.90;;;;;;4937091;29;20104;-79
2021/12/04 14:25:43;;;;;;;46.63;17.98;;;5.30;99.90;;;;;;4920851;29;20063;-79
2021/12/04 14:28:14;;;;;;;41.38;16.23;;;6.00;99.90;;;;;;4920116;29;20093;-81
2021/12/04 14:30:45;;;;;;;45.88;17.33;;;5.30;99.90;;;;;;4921425;29;20095;-79
2021/12/04 14:33:15;;;;;;;40.60;16.77;;;5.30;99.90;;;;;;4927682;29;20059;-80
2021/12/04 14:35:45;;;;;;;43.35;17.25;;;5.30;99.90;;;;;;4921907;29;20044;-80
2021/12/04 14:38:20;;;;;;;44.20;17.55;;;5.30;99.90;;;;;;4923472;29;20070;-80
2021/12/04 14:40:51;;;;;;;46.28;17.25;;;5.30;99.90;;;;;;4912879;29;20048;-80
2021/12/04 14:43:23;;;;;;;44.45;16.38;;;5.30;99.90;;;;;;4922942;29;20087;-79
2021/12/04 14:45:51;;;;;;;40.47;16.17;;;5.30;99.90;;;;;;4891025;29;20047;-80
2021/12/04 14:48:20;;;;;;;55.45;18.70;;;6.10;99.90;;;;;;4923508;29;20386;-79
2021/12/04 14:50:58;;;;;;;48.58;18.48;;;5.30;99.90;;;;;;4931193;29;20075;-82
2021/12/04 14:53:24;;;;;;;49.72;17.73;;;5.30;99.90;;;;;;4929388;29;20047;-79
2021/12/04 14:55:52;;;;;;;54.47;18.67;;;5.30;99.90;;;;;;4922313;29;20075;-79
2021/12/04 14:58:24;;;;;;;58.40;19.50;;;5.30;99.90;;;;;;4932826;29;20509;-79
2021/12/04 15:00:59;;;;;;;56.30;19.92;;;5.40;99.90;;;;;;4924964;29;20078;-80
2021/12/04 15:03:33;;;;;;;66.80;20.63;;;5.30;99.90;;;;;;4926975;29;20507;-80
2021/12/04 15:06:00;;;;;;;48.92;18.80;;;5.30;99.90;;;;;;4910563;29;20066;-79
2021/12/04 15:08:29;;;;;;;48.78;18.40;;;5.30;99.90;;;;;;4928467;29;22335;-80
2021/12/04 15:11:01;;;;;;;49.08;18.73;;;5.50;99.90;;;;;;4927870;29;20051;-81
2021/12/04 15:13:30;;;;;;;60.42;19.52;;;5.30;99.90;;;;;;4925286;29;20126;-80
2021/12/04 15:16:02;;;;;;;51.53;19.45;;;5.40;99.90;;;;;;4896418;29;20382;-80
2021/12/04 15:18:36;;;;;;;42.08;17.13;;;5.30;99.90;;;;;;4928785;29;20051;-80
2021/12/04 15:21:15;;;;;;;41.83;17.10;;;6.00;99.90;;;;;;4932895;29;20051;-78
2021/12/04 15:23:43;;;;;;;49.97;17.98;;;5.40;99.90;;;;;;4922289;29;20138;-79
2021/12/04 15:26:17;;;;;;;49.50;17.80;;;5.30;99.90;;;;;;4925170;29;20065;-79
2021/12/04 15:28:53;;;;;;;57.80;17.95;;;5.30;99.90;;;;;;4926069;29;20051;-79
2021/12/04 15:31:21;;;;;;;47.20;16.75;;;5.60;99.90;;;;;;4924599;29;20138;-79
2021/12/04 15:33:50;;;;;;;45.53;16.17;;;5.30;99.90;;;;;;4916867;29;20119;-82
2021/12/04 15:36:38;;;;;;;39.78;16.05;;;5.30;99.90;;;;;;4928133;29;20051;-80
2021/12/04 15:39:11;;;;;;;39.85;15.27;;;5.70;99.90;;;;;;4927374;29;20929;-79
2021/12/04 15:42:00;;;;;;;46.95;17.52;;;5.40;99.90;;;;;;4915187;29;20035;-80
2021/12/04 15:47:20;;;;;;;45.17;17.17;;;5.30;99.90;;;;;;4927866;29;20051;-79
2021/12/04 15:50:23;;;;;;;40.60;17.00;;;5.40;99.90;;;;;;4925965;29;20051;-79
2021/12/04 15:55:29;;;;;;;49.25;17.88;;;6.00;99.90;;;;;;4932595;29;20536;-78
2021/12/04 15:58:15;;;;;;;41.88;17.20;;;5.30;99.90;;;;;;4905560;29;20087;-80
2021/12/04 16:00:55;;;;;;;47.55;17.42;;;5.40;99.90;;;;;;4925733;29;20043;-79